sensor_id;sensor_type;location;lat;lon;timestamp;pressure;altitude;pressure_sealevel;temperature;humidity
75852;BME280;64500;52.632;20.656;2023-03-23T00:02:26;99714.72;;;7.15;78.42
75852;BME280;64500;52.632;20.656;2023-03-23T00:04:53;99710.96;;;7.18;78.60
75852;BME280;64500;52.632;20.656;2023-03-23T00:07:22;99710.08;;;7.18;78.30
75852;BME280;64500;52.632;20.656;2023-03-23T00:09:54;99708.32;;;7.18;78.37
75852;BME280;64500;52.632;20.656;2023-03-23T00:12:26;99707.58;;;7.20;78.18
75852;BME280;64500;52.632;20.656;2023-03-23T00:15:03;99707.85;;;7.23;78.52
75852;BME280;64500;52.632;20.656;2023-03-23T00:17:31;99701.29;;;7.26;78.36
75852;BME280;64500;52.632;20.656;2023-03-23T00:20:02;99700.73;;;7.28;78.51
75852;BME280;64500;52.632;20.656;2023-03-23T00:22:31;99703.85;;;7.30;78.52
75852;BME280;64500;52.632;20.656;2023-03-23T00:25:05;99698.00;;;7.32;78.57
75852;BME280;64500;52.632;20.656;2023-03-23T00:27:33;99697.23;;;7.35;78.60
75852;BME280;64500;52.632;20.656;2023-03-23T00:30:00;99693.66;;;7.38;78.32
75852;BME280;64500;52.632;20.656;2023-03-23T00:32:27;99693.77;;;7.40;78.70
75852;BME280;64500;52.632;20.656;2023-03-23T00:34:56;99692.52;;;7.42;78.53
75852;BME280;64500;52.632;20.656;2023-03-23T00:37:26;99690.20;;;7.43;78.51
75852;BME280;64500;52.632;20.656;2023-03-23T00:39:53;99681.44;;;7.41;78.53
75852;BME280;64500;52.632;20.656;2023-03-23T00:42:24;99681.45;;;7.41;78.54
75852;BME280;64500;52.632;20.656;2023-03-23T00:44:52;99676.73;;;7.40;78.32
75852;BME280;64500;52.632;20.656;2023-03-23T00:47:27;99677.30;;;7.38;78.44
75852;BME280;64500;52.632;20.656;2023-03-23T00:49:54;99674.03;;;7.35;78.44
75852;BME280;64500;52.632;20.656;2023-03-23T00:52:23;99674.08;;;7.32;78.43
75852;BME280;64500;52.632;20.656;2023-03-23T00:54:50;99675.55;;;7.29;78.20
75852;BME280;64500;52.632;20.656;2023-03-23T00:57:18;99670.69;;;7.27;78.25
75852;BME280;64500;52.632;20.656;2023-03-23T00:59:45;99666.70;;;7.24;78.57
75852;BME280;64500;52.632;20.656;2023-03-23T01:02:12;99662.72;;;7.21;78.54
75852;BME280;64500;52.632;20.656;2023-03-23T01:04:39;99656.60;;;7.19;78.39
75852;BME280;64500;52.632;20.656;2023-03-23T01:07:06;99655.41;;;7.18;78.52
75852;BME280;64500;52.632;20.656;2023-03-23T01:09:34;99648.74;;;7.17;78.56
75852;BME280;64500;52.632;20.656;2023-03-23T01:12:03;99654.20;;;7.17;78.78
75852;BME280;64500;52.632;20.656;2023-03-23T01:14:32;99650.88;;;7.17;78.88
75852;BME280;64500;52.632;20.656;2023-03-23T01:17:02;99651.91;;;7.18;78.78
75852;BME280;64500;52.632;20.656;2023-03-23T01:19:32;99650.99;;;7.19;79.03
75852;BME280;64500;52.632;20.656;2023-03-23T01:21:59;99649.02;;;7.21;79.07
75852;BME280;64500;52.632;20.656;2023-03-23T01:24:26;99647.95;;;7.22;78.96
75852;BME280;64500;52.632;20.656;2023-03-23T01:26:54;99641.05;;;7.23;79.14
75852;BME280;64500;52.632;20.656;2023-03-23T01:29:21;99643.11;;;7.26;79.31
75852;BME280;64500;52.632;20.656;2023-03-23T01:31:48;99643.03;;;7.29;79.47
75852;BME280;64500;52.632;20.656;2023-03-23T01:34:14;99642.47;;;7.31;79.31
75852;BME280;64500;52.632;20.656;2023-03-23T01:36:42;99647.16;;;7.34;79.57
75852;BME280;64500;52.632;20.656;2023-03-23T01:39:11;99643.97;;;7.35;79.34
75852;BME280;64500;52.632;20.656;2023-03-23T01:41:38;99642.65;;;7.38;79.28
75852;BME280;64500;52.632;20.656;2023-03-23T01:46:55;99631.79;;;7.45;79.67
75852;BME280;64500;52.632;20.656;2023-03-23T01:49:25;99630.48;;;7.47;79.58
75852;BME280;64500;52.632;20.656;2023-03-23T01:51:58;99625.88;;;7.49;79.33
75852;BME280;64500;52.632;20.656;2023-03-23T01:54:27;99628.11;;;7.52;79.54
75852;BME280;64500;52.632;20.656;2023-03-23T01:59:29;99619.77;;;7.54;79.22
75852;BME280;64500;52.632;20.656;2023-03-23T02:01:57;99615.66;;;7.57;79.41
75852;BME280;64500;52.632;20.656;2023-03-23T02:04:28;99607.73;;;7.58;79.17
75852;BME280;64500;52.632;20.656;2023-03-23T02:06:57;99607.67;;;7.60;79.29
75852;BME280;64500;52.632;20.656;2023-03-23T02:09:25;99607.31;;;7.61;79.40
75852;BME280;64500;52.632;20.656;2023-03-23T02:11:53;99614.98;;;7.63;79.12
75852;BME280;64500;52.632;20.656;2023-03-23T02:14:21;99616.04;;;7.63;79.29
75852;BME280;64500;52.632;20.656;2023-03-23T02:17:03;99615.88;;;7.63;79.15
75852;BME280;64500;52.632;20.656;2023-03-23T02:22:55;99614.72;;;7.60;79.03
75852;BME280;64500;52.632;20.656;2023-03-23T02:34:05;99608.92;;;7.38;78.81
75852;BME280;64500;52.632;20.656;2023-03-23T02:36:40;99607.91;;;7.28;78.69
75852;BME280;64500;52.632;20.656;2023-03-23T02:39:23;99607.92;;;7.20;78.80
75852;BME280;64500;52.632;20.656;2023-03-23T02:41:56;99610.20;;;7.13;78.85
75852;BME280;64500;52.632;20.656;2023-03-23T02:44:26;99609.50;;;7.04;78.98
75852;BME280;64500;52.632;20.656;2023-03-23T02:46:57;99604.59;;;6.96;78.90
75852;BME280;64500;52.632;20.656;2023-03-23T02:49:28;99610.72;;;6.88;79.06
75852;BME280;64500;52.632;20.656;2023-03-23T02:51:59;99612.45;;;6.81;78.89
75852;BME280;64500;52.632;20.656;2023-03-23T02:54:29;99608.23;;;6.74;79.10
75852;BME280;64500;52.632;20.656;2023-03-23T02:56:57;99615.56;;;6.67;79.18
75852;BME280;64500;52.632;20.656;2023-03-23T02:59:24;99618.67;;;6.61;79.20
75852;BME280;64500;52.632;20.656;2023-03-23T03:01:57;99615.29;;;6.55;79.21
75852;BME280;64500;52.632;20.656;2023-03-23T03:04:27;99619.43;;;6.50;79.24
75852;BME280;64500;52.632;20.656;2023-03-23T03:07:07;99624.27;;;6.45;79.37
75852;BME280;64500;52.632;20.656;2023-03-23T03:09:46;99625.40;;;6.40;79.49
75852;BME280;64500;52.632;20.656;2023-03-23T03:17:41;99615.96;;;6.28;79.86
75852;BME280;64500;52.632;20.656;2023-03-23T03:20:12;99604.40;;;6.28;80.14
75852;BME280;64500;52.632;20.656;2023-03-23T03:22:43;99603.33;;;6.29;79.96
75852;BME280;64500;52.632;20.656;2023-03-23T03:25:13;99607.84;;;6.31;80.51
75852;BME280;64500;52.632;20.656;2023-03-23T03:27:43;99615.85;;;6.35;80.64
75852;BME280;64500;52.632;20.656;2023-03-23T03:30:14;99616.11;;;6.39;80.60
75852;BME280;64500;52.632;20.656;2023-03-23T03:32:47;99606.44;;;6.40;80.51
75852;BME280;64500;52.632;20.656;2023-03-23T03:35:15;99605.77;;;6.38;80.61
75852;BME280;64500;52.632;20.656;2023-03-23T03:37:43;99605.66;;;6.35;80.21
75852;BME280;64500;52.632;20.656;2023-03-23T03:40:13;99601.48;;;6.33;80.24
75852;BME280;64500;52.632;20.656;2023-03-23T03:42:42;99599.10;;;6.30;80.41
75852;BME280;64500;52.632;20.656;2023-03-23T03:45:17;99597.22;;;6.27;80.56
75852;BME280;64500;52.632;20.656;2023-03-23T03:47:44;99588.46;;;6.26;80.45
75852;BME280;64500;52.632;20.656;2023-03-23T03:50:12;99587.75;;;6.27;80.61
75852;BME280;64500;52.632;20.656;2023-03-23T03:52:39;99592.64;;;6.27;80.69
75852;BME280;64500;52.632;20.656;2023-03-23T03:55:08;99600.87;;;6.29;80.83
75852;BME280;64500;52.632;20.656;2023-03-23T03:57:36;99603.60;;;6.33;80.98
75852;BME280;64500;52.632;20.656;2023-03-23T04:00:06;99610.02;;;6.37;81.17
75852;BME280;64500;52.632;20.656;2023-03-23T04:02:48;99610.61;;;6.43;81.18
75852;BME280;64500;52.632;20.656;2023-03-23T04:05:18;99607.54;;;6.47;81.31
75852;BME280;64500;52.632;20.656;2023-03-23T04:07:46;99609.74;;;6.50;81.32
75852;BME280;64500;52.632;20.656;2023-03-23T04:10:16;99603.17;;;6.54;81.26
75852;BME280;64500;52.632;20.656;2023-03-23T04:12:43;99593.79;;;6.58;81.25
75852;BME280;64500;52.632;20.656;2023-03-23T04:15:12;99599.32;;;6.63;81.35
75852;BME280;64500;52.632;20.656;2023-03-23T04:17:40;99601.16;;;6.67;81.32
75852;BME280;64500;52.632;20.656;2023-03-23T04:20:08;99597.05;;;6.71;81.36
75852;BME280;64500;52.632;20.656;2023-03-23T04:22:39;99594.34;;;6.74;81.45
75852;BME280;64500;52.632;20.656;2023-03-23T04:25:11;99590.92;;;6.78;81.40
75852;BME280;64500;52.632;20.656;2023-03-23T04:27:39;99582.77;;;6.81;81.36
75852;BME280;64500;52.632;20.656;2023-03-23T04:30:11;99583.05;;;6.85;81.22
75852;BME280;64500;52.632;20.656;2023-03-23T04:32:40;99580.52;;;6.88;81.39
75852;BME280;64500;52.632;20.656;2023-03-23T04:35:13;99584.81;;;6.92;81.22
75852;BME280;64500;52.632;20.656;2023-03-23T04:37:40;99577.70;;;6.97;81.29
75852;BME280;64500;52.632;20.656;2023-03-23T04:40:10;99575.52;;;7.00;81.18
75852;BME280;64500;52.632;20.656;2023-03-23T04:42:41;99570.86;;;7.04;81.35
75852;BME280;64500;52.632;20.656;2023-03-23T04:45:18;99570.98;;;7.06;81.30
75852;BME280;64500;52.632;20.656;2023-03-23T04:47:51;99563.54;;;7.09;81.23
75852;BME280;64500;52.632;20.656;2023-03-23T04:50:28;99563.25;;;7.13;81.36
75852;BME280;64500;52.632;20.656;2023-03-23T04:52:57;99569.11;;;7.18;81.35
75852;BME280;64500;52.632;20.656;2023-03-23T04:55:25;99568.66;;;7.23;81.33
75852;BME280;64500;52.632;20.656;2023-03-23T04:57:52;99573.27;;;7.28;81.32
75852;BME280;64500;52.632;20.656;2023-03-23T05:00:20;99575.79;;;7.34;81.22
75852;BME280;64500;52.632;20.656;2023-03-23T05:02:48;99572.87;;;7.38;81.12
75852;BME280;64500;52.632;20.656;2023-03-23T05:05:19;99569.55;;;7.44;81.20
75852;BME280;64500;52.632;20.656;2023-03-23T05:07:46;99568.77;;;7.48;80.77
75852;BME280;64500;52.632;20.656;2023-03-23T05:10:15;99567.11;;;7.50;80.91
75852;BME280;64500;52.632;20.656;2023-03-23T05:12:43;99565.84;;;7.52;80.63
75852;BME280;64500;52.632;20.656;2023-03-23T05:15:13;99569.98;;;7.55;80.73
75852;BME280;64500;52.632;20.656;2023-03-23T05:17:40;99561.02;;;7.62;80.83
75852;BME280;64500;52.632;20.656;2023-03-23T05:20:12;99564.45;;;7.72;80.78
75852;BME280;64500;52.632;20.656;2023-03-23T05:22:41;99562.38;;;7.85;81.06
75852;BME280;64500;52.632;20.656;2023-03-23T05:25:10;99567.79;;;8.00;80.96
75852;BME280;64500;52.632;20.656;2023-03-23T05:27:37;99568.11;;;8.14;81.16
75852;BME280;64500;52.632;20.656;2023-03-23T05:30:07;99568.98;;;8.27;80.80
75852;BME280;64500;52.632;20.656;2023-03-23T05:32:34;99566.59;;;8.38;80.89
75852;BME280;64500;52.632;20.656;2023-03-23T05:35:01;99569.23;;;8.50;80.78
75852;BME280;64500;52.632;20.656;2023-03-23T05:37:30;99571.73;;;8.61;80.34
75852;BME280;64500;52.632;20.656;2023-03-23T05:40:01;99573.70;;;8.72;80.36
75852;BME280;64500;52.632;20.656;2023-03-23T05:42:33;99566.37;;;8.82;80.35
75852;BME280;64500;52.632;20.656;2023-03-23T05:45:04;99566.32;;;8.89;79.92
75852;BME280;64500;52.632;20.656;2023-03-23T05:47:32;99569.48;;;8.96;79.90
75852;BME280;64500;52.632;20.656;2023-03-23T05:49:59;99571.07;;;9.01;79.76
75852;BME280;64500;52.632;20.656;2023-03-23T05:52:27;99573.71;;;9.07;79.50
75852;BME280;64500;52.632;20.656;2023-03-23T05:54:54;99582.00;;;9.13;79.26
75852;BME280;64500;52.632;20.656;2023-03-23T05:57:21;99578.13;;;9.18;79.01
75852;BME280;64500;52.632;20.656;2023-03-23T05:59:51;99574.62;;;9.24;79.00
75852;BME280;64500;52.632;20.656;2023-03-23T06:02:19;99577.32;;;9.33;78.93
75852;BME280;64500;52.632;20.656;2023-03-23T06:04:47;99572.38;;;9.44;79.18
75852;BME280;64500;52.632;20.656;2023-03-23T06:07:15;99571.90;;;9.59;78.81
75852;BME280;64500;52.632;20.656;2023-03-23T06:09:42;99569.48;;;9.73;78.86
75852;BME280;64500;52.632;20.656;2023-03-23T06:12:09;99570.38;;;9.88;78.58
75852;BME280;64500;52.632;20.656;2023-03-23T06:14:37;99571.61;;;10.08;78.64
75852;BME280;64500;52.632;20.656;2023-03-23T06:17:05;99569.14;;;10.34;78.56
75852;BME280;64500;52.632;20.656;2023-03-23T06:19:32;99563.13;;;10.63;78.57
75852;BME280;64500;52.632;20.656;2023-03-23T06:22:01;99561.08;;;10.94;78.31
75852;BME280;64500;52.632;20.656;2023-03-23T06:24:29;99557.30;;;11.27;78.37
75852;BME280;64500;52.632;20.656;2023-03-23T06:26:56;99556.35;;;11.59;78.05
75852;BME280;64500;52.632;20.656;2023-03-23T06:29:23;99555.40;;;11.86;77.43
75852;BME280;64500;52.632;20.656;2023-03-23T06:31:56;99560.36;;;12.11;77.14
75852;BME280;64500;52.632;20.656;2023-03-23T06:34:25;99570.58;;;12.37;76.66
75852;BME280;64500;52.632;20.656;2023-03-23T06:36:52;99571.52;;;12.55;76.19
75852;BME280;64500;52.632;20.656;2023-03-23T06:39:20;99570.93;;;12.72;75.59
75852;BME280;64500;52.632;20.656;2023-03-23T06:41:49;99571.89;;;12.86;75.13
75852;BME280;64500;52.632;20.656;2023-03-23T06:44:16;99568.14;;;13.01;75.03
75852;BME280;64500;52.632;20.656;2023-03-23T06:46:43;99575.29;;;13.07;74.13
75852;BME280;64500;52.632;20.656;2023-03-23T06:49:11;99578.60;;;13.13;73.67
75852;BME280;64500;52.632;20.656;2023-03-23T06:51:38;99581.34;;;13.11;73.14
75852;BME280;64500;52.632;20.656;2023-03-23T06:54:05;99588.57;;;13.13;72.99
75852;BME280;64500;52.632;20.656;2023-03-23T06:56:32;99589.10;;;13.13;72.83
75852;BME280;64500;52.632;20.656;2023-03-23T06:59:00;99588.91;;;13.13;72.46
75852;BME280;64500;52.632;20.656;2023-03-23T07:01:27;99584.92;;;13.15;72.31
75852;BME280;64500;52.632;20.656;2023-03-23T07:03:55;99579.80;;;13.17;72.29
75852;BME280;64500;52.632;20.656;2023-03-23T07:06:25;99576.33;;;13.20;71.94
75852;BME280;64500;52.632;20.656;2023-03-23T07:08:53;99579.33;;;13.20;71.68
75852;BME280;64500;52.632;20.656;2023-03-23T07:11:20;99580.88;;;13.21;71.59
75852;BME280;64500;52.632;20.656;2023-03-23T07:13:47;99579.73;;;13.23;71.52
75852;BME280;64500;52.632;20.656;2023-03-23T07:16:14;99584.34;;;13.23;71.10
75852;BME280;64500;52.632;20.656;2023-03-23T07:18:41;99583.25;;;13.20;70.91
75852;BME280;64500;52.632;20.656;2023-03-23T07:21:07;99582.84;;;13.17;70.70
75852;BME280;64500;52.632;20.656;2023-03-23T07:23:35;99581.81;;;13.16;70.52
75852;BME280;64500;52.632;20.656;2023-03-23T07:26:03;99579.05;;;13.19;70.55
75852;BME280;64500;52.632;20.656;2023-03-23T07:28:32;99582.25;;;13.30;70.44
75852;BME280;64500;52.632;20.656;2023-03-23T07:30:59;99585.96;;;13.59;71.00
75852;BME280;64500;52.632;20.656;2023-03-23T07:33:26;99586.13;;;14.09;71.35
75852;BME280;64500;52.632;20.656;2023-03-23T07:35:53;99582.83;;;14.69;71.49
75852;BME280;64500;52.632;20.656;2023-03-23T07:38:20;99578.52;;;15.25;70.86
75852;BME280;64500;52.632;20.656;2023-03-23T07:40:47;99588.18;;;15.75;70.49
75852;BME280;64500;52.632;20.656;2023-03-23T07:43:14;99586.40;;;16.08;68.60
75852;BME280;64500;52.632;20.656;2023-03-23T07:45:41;99589.96;;;16.23;67.92
75852;BME280;64500;52.632;20.656;2023-03-23T07:48:08;99587.86;;;16.37;67.46
75852;BME280;64500;52.632;20.656;2023-03-23T07:50:35;99591.27;;;16.57;67.16
75852;BME280;64500;52.632;20.656;2023-03-23T07:53:04;99586.95;;;16.75;66.66
75852;BME280;64500;52.632;20.656;2023-03-23T07:55:31;99584.52;;;16.94;66.21
75852;BME280;64500;52.632;20.656;2023-03-23T07:57:59;99581.70;;;17.05;65.36
75852;BME280;64500;52.632;20.656;2023-03-23T08:00:26;99577.38;;;17.12;64.78
75852;BME280;64500;52.632;20.656;2023-03-23T08:02:54;99570.27;;;17.25;64.55
75852;BME280;64500;52.632;20.656;2023-03-23T08:05:22;99569.27;;;17.43;64.26
75852;BME280;64500;52.632;20.656;2023-03-23T08:07:53;99558.98;;;17.66;63.91
75852;BME280;64500;52.632;20.656;2023-03-23T08:10:22;99556.20;;;17.95;63.54
75852;BME280;64500;52.632;20.656;2023-03-23T08:12:55;99546.73;;;18.23;63.36
75852;BME280;64500;52.632;20.656;2023-03-23T08:15:22;99540.70;;;18.53;62.65
75852;BME280;64500;52.632;20.656;2023-03-23T08:17:50;99535.62;;;18.75;61.90
75852;BME280;64500;52.632;20.656;2023-03-23T08:20:18;99541.04;;;18.94;61.41
75852;BME280;64500;52.632;20.656;2023-03-23T08:22:52;99540.74;;;19.13;60.69
75852;BME280;64500;52.632;20.656;2023-03-23T08:25:20;99549.08;;;19.24;60.24
75852;BME280;64500;52.632;20.656;2023-03-23T08:27:48;99555.82;;;19.30;59.44
75852;BME280;64500;52.632;20.656;2023-03-23T08:30:18;99547.29;;;19.21;58.61
75852;BME280;64500;52.632;20.656;2023-03-23T08:32:46;99547.77;;;19.15;58.29
75852;BME280;64500;52.632;20.656;2023-03-23T08:35:14;99550.30;;;19.10;57.80
75852;BME280;64500;52.632;20.656;2023-03-23T08:37:43;99551.46;;;18.96;57.54
75852;BME280;64500;52.632;20.656;2023-03-23T08:40:12;99549.20;;;18.90;57.52
75852;BME280;64500;52.632;20.656;2023-03-23T08:42:42;99545.05;;;18.93;57.08
75852;BME280;64500;52.632;20.656;2023-03-23T08:45:15;99536.21;;;18.94;57.04
75852;BME280;64500;52.632;20.656;2023-03-23T08:47:44;99540.64;;;19.07;57.18
75852;BME280;64500;52.632;20.656;2023-03-23T08:50:15;99538.83;;;19.17;57.05
75852;BME280;64500;52.632;20.656;2023-03-23T08:52:42;99539.41;;;19.26;56.80
75852;BME280;64500;52.632;20.656;2023-03-23T08:55:11;99540.08;;;19.44;56.77
75852;BME280;64500;52.632;20.656;2023-03-23T08:57:39;99537.52;;;19.57;56.18
75852;BME280;64500;52.632;20.656;2023-03-23T09:00:08;99536.16;;;19.68;56.10
75852;BME280;64500;52.632;20.656;2023-03-23T09:02:45;99538.40;;;19.77;55.10
75852;BME280;64500;52.632;20.656;2023-03-23T09:05:16;99537.02;;;19.78;55.25
75852;BME280;64500;52.632;20.656;2023-03-23T09:07:46;99536.45;;;19.81;55.13
75852;BME280;64500;52.632;20.656;2023-03-23T09:10:15;99522.75;;;19.87;54.99
75852;BME280;64500;52.632;20.656;2023-03-23T09:12:43;99522.30;;;19.90;54.66
75852;BME280;64500;52.632;20.656;2023-03-23T09:15:13;99519.73;;;20.00;54.64
75852;BME280;64500;52.632;20.656;2023-03-23T09:17:43;99511.66;;;20.12;53.91
75852;BME280;64500;52.632;20.656;2023-03-23T09:20:13;99515.81;;;20.11;53.42
75852;BME280;64500;52.632;20.656;2023-03-23T09:22:43;99514.07;;;20.22;53.67
75852;BME280;64500;52.632;20.656;2023-03-23T09:25:15;99514.09;;;20.45;53.23
75852;BME280;64500;52.632;20.656;2023-03-23T09:27:43;99509.59;;;20.73;53.04
75852;BME280;64500;52.632;20.656;2023-03-23T09:30:13;99512.69;;;20.94;52.74
75852;BME280;64500;52.632;20.656;2023-03-23T09:32:46;99519.42;;;21.09;52.02
75852;BME280;64500;52.632;20.656;2023-03-23T09:35:15;99515.82;;;21.09;51.36
75852;BME280;64500;52.632;20.656;2023-03-23T09:37:44;99520.91;;;21.04;50.93
75852;BME280;64500;52.632;20.656;2023-03-23T09:40:23;99519.96;;;21.02;51.02
75852;BME280;64500;52.632;20.656;2023-03-23T09:50:47;99520.92;;;21.43;50.17
75852;BME280;64500;52.632;20.656;2023-03-23T09:53:26;99515.32;;;21.43;49.36
75852;BME280;64500;52.632;20.656;2023-03-23T09:55:55;99510.35;;;21.30;49.38
75852;BME280;64500;52.632;20.656;2023-03-23T09:58:37;99508.30;;;21.17;48.76
75852;BME280;64500;52.632;20.656;2023-03-23T10:01:37;99507.11;;;21.01;48.48
75852;BME280;64500;52.632;20.656;2023-03-23T10:06:57;99503.05;;;21.20;48.81
75852;BME280;64500;52.632;20.656;2023-03-23T10:09:24;99496.70;;;21.40;48.37
75852;BME280;64500;52.632;20.656;2023-03-23T10:14:52;99490.88;;;21.84;47.45
75852;BME280;64500;52.632;20.656;2023-03-23T10:22:45;99481.70;;;21.74;46.21
75852;BME280;64500;52.632;20.656;2023-03-23T10:25:18;99474.78;;;21.51;45.63
75852;BME280;64500;52.632;20.656;2023-03-23T10:28:06;99468.45;;;21.32;45.39
75852;BME280;64500;52.632;20.656;2023-03-23T10:30:55;99476.66;;;21.20;45.82
75852;BME280;64500;52.632;20.656;2023-03-23T10:33:36;99480.58;;;21.33;46.29
75852;BME280;64500;52.632;20.656;2023-03-23T10:39:05;99480.85;;;21.19;45.44
75852;BME280;64500;52.632;20.656;2023-03-23T10:41:36;99475.34;;;21.03;45.44
75852;BME280;64500;52.632;20.656;2023-03-23T10:44:18;99474.48;;;20.98;45.46
75852;BME280;64500;52.632;20.656;2023-03-23T10:46:59;99465.36;;;20.97;45.68
75852;BME280;64500;52.632;20.656;2023-03-23T10:49:31;99459.40;;;21.09;45.62
75852;BME280;64500;52.632;20.656;2023-03-23T10:54:51;99464.39;;;21.66;44.91
75852;BME280;64500;52.632;20.656;2023-03-23T10:57:23;99461.96;;;21.77;44.39
75852;BME280;64500;52.632;20.656;2023-03-23T10:59:51;99458.08;;;21.83;43.88
75852;BME280;64500;52.632;20.656;2023-03-23T11:02:19;99455.17;;;21.81;43.47
75852;BME280;64500;52.632;20.656;2023-03-23T11:05:09;99457.34;;;21.75;43.72
75852;BME280;64500;52.632;20.656;2023-03-23T11:07:40;99456.47;;;21.68;43.81
75852;BME280;64500;52.632;20.656;2023-03-23T11:10:20;99459.08;;;21.59;43.72
75852;BME280;64500;52.632;20.656;2023-03-23T11:12:48;99454.48;;;21.36;43.33
75852;BME280;64500;52.632;20.656;2023-03-23T11:15:28;99447.15;;;21.09;43.12
75852;BME280;64500;52.632;20.656;2023-03-23T11:17:57;99448.23;;;20.81;43.24
75852;BME280;64500;52.632;20.656;2023-03-23T11:20:27;99444.58;;;20.55;43.21
75852;BME280;64500;52.632;20.656;2023-03-23T11:22:55;99435.31;;;20.24;43.31
75852;BME280;64500;52.632;20.656;2023-03-23T11:25:23;99428.30;;;20.02;43.74
75852;BME280;64500;52.632;20.656;2023-03-23T11:27:50;99426.05;;;19.85;44.14
75852;BME280;64500;52.632;20.656;2023-03-23T11:30:27;99418.84;;;19.69;44.36
75852;BME280;64500;52.632;20.656;2023-03-23T11:33:01;99416.20;;;19.59;44.73
75852;BME280;64500;52.632;20.656;2023-03-23T11:35:29;99406.33;;;19.50;44.45
75852;BME280;64500;52.632;20.656;2023-03-23T11:37:57;99405.30;;;19.35;44.73
75852;BME280;64500;52.632;20.656;2023-03-23T11:40:30;99405.46;;;19.26;44.96
75852;BME280;64500;52.632;20.656;2023-03-23T11:43:09;99407.38;;;19.17;44.71
75852;BME280;64500;52.632;20.656;2023-03-23T11:51:17;99389.88;;;19.02;45.70
75852;BME280;64500;52.632;20.656;2023-03-23T11:53:54;99383.77;;;19.07;46.17
75852;BME280;64500;52.632;20.656;2023-03-23T11:56:29;99388.20;;;19.15;45.97
75852;BME280;64500;52.632;20.656;2023-03-23T11:58:58;99385.35;;;19.24;46.12
75852;BME280;64500;52.632;20.656;2023-03-23T12:10:15;99383.08;;;19.70;44.96
75852;BME280;64500;52.632;20.656;2023-03-23T12:16:00;99374.19;;;20.35;43.07
75852;BME280;64500;52.632;20.656;2023-03-23T12:18:46;99373.33;;;20.48;42.56
75852;BME280;64500;52.632;20.656;2023-03-23T12:27:10;99373.45;;;20.37;40.85
75852;BME280;64500;52.632;20.656;2023-03-23T12:30:02;99383.42;;;20.32;41.96
75852;BME280;64500;52.632;20.656;2023-03-23T12:32:53;99385.70;;;20.44;42.42
75852;BME280;64500;52.632;20.656;2023-03-23T12:41:08;99380.57;;;20.21;41.85
75852;BME280;64500;52.632;20.656;2023-03-23T12:46:27;99377.70;;;20.13;42.43
75852;BME280;64500;52.632;20.656;2023-03-23T12:49:04;99374.45;;;19.91;42.12
75852;BME280;64500;52.632;20.656;2023-03-23T12:51:37;99380.71;;;19.66;42.66
75852;BME280;64500;52.632;20.656;2023-03-23T12:56:52;99385.73;;;19.36;42.91
75852;BME280;64500;52.632;20.656;2023-03-23T12:59:49;99388.44;;;19.11;43.29
75852;BME280;64500;52.632;20.656;2023-03-23T13:02:28;99389.48;;;18.86;43.75
75852;BME280;64500;52.632;20.656;2023-03-23T13:05:28;99392.20;;;18.73;43.88
75852;BME280;64500;52.632;20.656;2023-03-23T13:08:23;99393.91;;;18.61;44.36
75852;BME280;64500;52.632;20.656;2023-03-23T13:10:57;99404.29;;;18.54;44.71
75852;BME280;64500;52.632;20.656;2023-03-23T13:13:26;99407.96;;;18.50;44.49
75852;BME280;64500;52.632;20.656;2023-03-23T13:19:08;99399.40;;;18.28;44.42
75852;BME280;64500;52.632;20.656;2023-03-23T13:21:43;99408.52;;;18.20;44.80
75852;BME280;64500;52.632;20.656;2023-03-23T13:24:17;99407.56;;;18.11;44.90
75852;BME280;64500;52.632;20.656;2023-03-23T13:26:45;99402.69;;;18.04;45.12
75852;BME280;64500;52.632;20.656;2023-03-23T13:29:21;99401.32;;;18.01;45.26
75852;BME280;64500;52.632;20.656;2023-03-23T13:32:16;99400.80;;;17.92;44.95
75852;BME280;64500;52.632;20.656;2023-03-23T13:34:46;99415.45;;;17.80;44.44
75852;BME280;64500;52.632;20.656;2023-03-23T13:37:26;99414.09;;;17.71;44.85
75852;BME280;64500;52.632;20.656;2023-03-23T13:39:57;99406.39;;;17.61;44.42
75852;BME280;64500;52.632;20.656;2023-03-23T13:42:27;99418.02;;;17.49;44.44
75852;BME280;64500;52.632;20.656;2023-03-23T13:45:23;99419.36;;;17.48;44.79
75852;BME280;64500;52.632;20.656;2023-03-23T13:48:18;99415.89;;;17.42;44.75
75852;BME280;64500;52.632;20.656;2023-03-23T13:50:59;99418.63;;;17.30;44.78
75852;BME280;64500;52.632;20.656;2023-03-23T13:53:53;99430.40;;;17.15;44.84
75852;BME280;64500;52.632;20.656;2023-03-23T13:56:31;99431.04;;;16.97;45.59
75852;BME280;64500;52.632;20.656;2023-03-23T14:10:39;99435.67;;;16.52;47.18
75852;BME280;64500;52.632;20.656;2023-03-23T14:13:23;99442.91;;;16.48;47.37
75852;BME280;64500;52.632;20.656;2023-03-23T14:15:59;99444.77;;;16.41;47.37
75852;BME280;64500;52.632;20.656;2023-03-23T14:18:31;99447.80;;;16.33;47.63
75852;BME280;64500;52.632;20.656;2023-03-23T14:21:01;99449.73;;;16.25;47.93
75852;BME280;64500;52.632;20.656;2023-03-23T14:23:31;99448.60;;;16.14;48.15
75852;BME280;64500;52.632;20.656;2023-03-23T14:26:09;99456.50;;;16.07;48.44
75852;BME280;64500;52.632;20.656;2023-03-23T14:28:39;99462.16;;;16.05;48.63
75852;BME280;64500;52.632;20.656;2023-03-23T14:31:20;99456.61;;;16.02;48.89
75852;BME280;64500;52.632;20.656;2023-03-23T14:33:49;99460.13;;;16.00;48.85
75852;BME280;64500;52.632;20.656;2023-03-23T14:36:31;99461.73;;;15.92;49.10
75852;BME280;64500;52.632;20.656;2023-03-23T14:39:06;99457.08;;;15.86;49.50
75852;BME280;64500;52.632;20.656;2023-03-23T14:41:38;99460.96;;;15.90;49.54
75852;BME280;64500;52.632;20.656;2023-03-23T14:44:08;99463.58;;;15.93;49.89
75852;BME280;64500;52.632;20.656;2023-03-23T14:46:36;99463.89;;;15.97;49.78
75852;BME280;64500;52.632;20.656;2023-03-23T14:49:04;99459.91;;;15.95;49.91
75852;BME280;64500;52.632;20.656;2023-03-23T14:51:33;99466.88;;;15.89;49.96
75852;BME280;64500;52.632;20.656;2023-03-23T14:53:59;99467.92;;;15.78;50.27